createdAt,value
2019-02-05T00:00:34.209Z,8.97
2019-02-05T00:03:02.927Z,6.77
2019-02-05T00:05:31.633Z,5.03
2019-02-05T00:08:00.503Z,6.07
2019-02-05T00:10:29.314Z,5.63
2019-02-05T00:12:57.990Z,5.63
2019-02-05T00:15:26.694Z,6.27
2019-02-05T00:17:55.383Z,5.30
2019-02-05T00:20:24.306Z,6.10
2019-02-05T00:22:52.975Z,5.77
2019-02-05T00:25:21.862Z,8.03
2019-02-05T00:27:50.574Z,7.17
2019-02-05T00:30:19.546Z,5.80
2019-02-05T00:32:48.400Z,5.47
2019-02-05T00:35:17.091Z,6.83
2019-02-05T00:37:45.828Z,6.27
2019-02-05T00:40:15.629Z,7.93
2019-02-05T00:42:44.339Z,6.53
2019-02-05T00:45:18.927Z,6.37
2019-02-05T00:47:47.759Z,6.47
2019-02-05T00:50:18.372Z,6.23
2019-02-05T00:52:47.077Z,8.53
2019-02-05T00:55:17.818Z,5.67
2019-02-05T00:57:46.534Z,8.80
2019-02-05T01:00:27.763Z,5.93
2019-02-05T01:02:56.530Z,6.50
2019-02-05T01:05:25.194Z,6.30
2019-02-05T01:07:54.103Z,9.17
2019-02-05T01:10:24.095Z,5.77
2019-02-05T01:12:53.368Z,7.47
2019-02-05T01:15:24.355Z,7.67
2019-02-05T01:17:53.622Z,7.60
2019-02-05T01:20:23.531Z,7.70
2019-02-05T01:22:52.579Z,6.40
2019-02-05T01:25:22.050Z,7.33
2019-02-05T01:27:51.227Z,6.00
2019-02-05T01:30:25.400Z,7.13
2019-02-05T01:32:54.626Z,6.87
2019-02-05T01:35:23.554Z,12.83
2019-02-05T01:37:52.455Z,8.13
2019-02-05T01:40:27.463Z,7.70
2019-02-05T01:42:56.163Z,7.30
2019-02-05T01:45:25.551Z,5.87
2019-02-05T01:47:54.396Z,6.23
2019-02-05T01:50:27.755Z,8.93
2019-02-05T01:52:56.503Z,8.43
2019-02-05T01:55:25.286Z,8.67
2019-02-05T01:57:54.103Z,6.87
2019-02-05T02:00:31.474Z,5.77
2019-02-05T02:03:00.359Z,6.13
2019-02-05T02:05:29.764Z,9.17
2019-02-05T02:07:58.815Z,5.97
2019-02-05T02:10:29.412Z,7.50
2019-02-05T02:12:58.538Z,7.40
2019-02-05T02:15:27.223Z,5.70
2019-02-05T02:17:55.932Z,7.53
2019-02-05T02:20:24.899Z,6.73
2019-02-05T02:22:53.941Z,6.67
2019-02-05T02:25:22.647Z,7.20
2019-02-05T02:27:51.663Z,6.77
2019-02-05T02:30:32.124Z,7.73
2019-02-05T02:33:01.023Z,5.90
2019-02-05T02:35:29.852Z,7.37
2019-02-05T02:37:58.533Z,6.20
2019-02-05T02:40:27.221Z,6.40
2019-02-05T02:42:55.923Z,6.83
2019-02-05T02:45:24.629Z,7.50
2019-02-05T02:47:53.512Z,6.93
2019-02-05T02:50:22.823Z,6.30
2019-02-05T02:52:52.575Z,7.03
2019-02-05T02:55:21.412Z,6.27
2019-02-05T02:57:50.112Z,7.10
2019-02-05T03:00:20.812Z,6.20
2019-02-05T03:02:50.491Z,7.73
2019-02-05T03:05:21.212Z,6.40
2019-02-05T03:07:50.409Z,7.53
2019-02-05T03:10:27.049Z,6.20
2019-02-05T03:12:56.218Z,8.00
2019-02-05T03:15:25.693Z,6.07
2019-02-05T03:17:54.539Z,7.70
2019-02-05T03:20:23.369Z,7.80
2019-02-05T03:22:52.502Z,6.80
2019-02-05T03:25:25.522Z,9.47
2019-02-05T03:27:54.503Z,6.70
2019-02-05T03:30:25.014Z,7.13
2019-02-05T03:32:55.754Z,6.57
2019-02-05T03:35:24.584Z,7.40
2019-02-05T03:37:53.326Z,6.90
2019-02-05T03:40:31.136Z,7.30
2019-02-05T03:43:00.134Z,5.90
2019-02-05T03:45:31.681Z,12.70
2019-02-05T03:48:04.734Z,6.70
2019-02-05T03:50:42.047Z,10.10
2019-02-05T03:53:22.846Z,6.80
2019-02-05T03:56:18.668Z,6.03
2019-02-05T03:59:08.749Z,6.30
2019-02-05T04:02:01.619Z,8.10
2019-02-05T04:04:50.296Z,7.77
2019-02-05T04:07:22.015Z,6.20
2019-02-05T04:10:19.653Z,5.53
2019-02-05T04:12:59.820Z,6.10
2019-02-05T04:15:59.079Z,7.87
2019-02-05T04:18:33.710Z,7.20
2019-02-05T04:21:11.461Z,7.60
2019-02-05T04:23:46.115Z,5.73
2019-02-05T04:26:33.023Z,7.50
2019-02-05T04:29:04.659Z,8.83
2019-02-05T04:31:51.425Z,7.77
2019-02-05T04:34:42.858Z,6.30
2019-02-05T04:37:20.647Z,7.33
2019-02-05T04:40:20.838Z,6.87
2019-02-05T04:43:10.733Z,7.50
2019-02-05T04:46:00.670Z,5.23
2019-02-05T04:48:47.186Z,7.30
2019-02-05T04:51:51.891Z,8.00
2019-02-05T04:54:32.740Z,6.57
2019-02-05T04:57:19.487Z,6.57
2019-02-05T05:00:06.725Z,5.60
2019-02-05T05:02:59.896Z,6.37
2019-02-05T05:05:34.759Z,8.13
2019-02-05T05:08:21.141Z,6.67
2019-02-05T05:10:50.095Z,6.90
2019-02-05T05:13:18.764Z,9.27
2019-02-05T05:15:47.490Z,6.97
2019-02-05T05:18:16.151Z,6.53
2019-02-05T05:20:45.264Z,14.13
2019-02-05T05:23:14.255Z,8.30
2019-02-05T05:25:43.241Z,8.27
2019-02-05T05:28:12.008Z,7.20
2019-02-05T05:30:40.692Z,7.90
2019-02-05T05:33:09.873Z,7.87
2019-02-05T05:35:43.501Z,8.83
2019-02-05T05:38:09.181Z,7.90
2019-02-05T05:40:37.916Z,6.57
2019-02-05T05:43:06.659Z,7.07
2019-02-05T05:45:35.351Z,7.03
2019-02-05T05:48:04.241Z,8.03
2019-02-05T05:50:33.284Z,8.03
2019-02-05T05:53:01.978Z,7.10
2019-02-05T05:55:30.710Z,7.00
2019-02-05T05:57:59.439Z,7.87
2019-02-05T06:00:28.408Z,7.43
2019-02-05T06:02:57.320Z,7.80
2019-02-05T06:05:26.170Z,7.90
2019-02-05T06:07:55.028Z,8.37
2019-02-05T06:10:23.750Z,8.73
2019-02-05T06:12:52.510Z,8.17
2019-02-05T06:15:21.203Z,10.10
2019-02-05T06:17:49.972Z,8.83
2019-02-05T06:20:19.423Z,8.47
2019-02-05T06:22:48.287Z,9.03
2019-02-05T06:25:17.012Z,7.83
2019-02-05T06:27:45.876Z,13.73
2019-02-05T06:30:16.505Z,7.80
2019-02-05T06:32:45.614Z,8.30
2019-02-05T06:35:14.324Z,7.97
2019-02-05T06:37:43.105Z,8.00
2019-02-05T06:40:15.040Z,8.50
2019-02-05T06:42:43.815Z,9.00
2019-02-05T06:45:14.851Z,7.87
2019-02-05T06:47:43.855Z,7.87
2019-02-05T06:50:13.930Z,8.80
2019-02-05T06:52:42.717Z,10.07
2019-02-05T06:55:14.114Z,10.70
2019-02-05T06:57:42.857Z,8.73
2019-02-05T07:00:20.030Z,8.00
2019-02-05T07:02:48.802Z,9.27
2019-02-05T07:05:17.723Z,10.80
2019-02-05T07:07:46.429Z,11.53
2019-02-05T07:10:23.212Z,11.57
2019-02-05T07:12:52.096Z,10.60
2019-02-05T07:15:20.888Z,11.03
2019-02-05T07:17:50.402Z,8.90
2019-02-05T07:20:19.366Z,9.90
2019-02-05T07:22:48.117Z,8.87
2019-02-05T07:25:21.481Z,9.17
2019-02-05T07:27:50.553Z,11.47
2019-02-05T07:30:26.904Z,11.33
2019-02-05T07:32:56.791Z,9.87
2019-02-05T07:35:25.502Z,9.73
2019-02-05T07:37:54.585Z,13.73
2019-02-05T07:40:24.079Z,10.20
2019-02-05T07:42:52.854Z,10.57
2019-02-05T07:45:23.347Z,11.43
2019-02-05T07:47:52.130Z,10.53
2019-02-05T07:50:23.971Z,12.90
2019-02-05T07:52:52.767Z,11.37
2019-02-05T07:55:21.544Z,13.87
2019-02-05T07:57:50.507Z,17.13
2019-02-05T08:00:24.804Z,14.63
2019-02-05T08:02:53.699Z,13.67
2019-02-05T08:05:27.693Z,21.20
2019-02-05T08:07:56.890Z,10.93
2019-02-05T08:10:25.622Z,12.80
2019-02-05T08:12:54.334Z,10.70
2019-02-05T08:15:28.522Z,13.20
2019-02-05T08:17:57.300Z,12.70
2019-02-05T08:20:26.359Z,15.30
2019-02-05T08:22:55.061Z,12.33
2019-02-05T08:25:23.827Z,16.83
2019-02-05T08:27:53.138Z,16.70
2019-02-05T08:30:24.831Z,14.57
2019-02-05T08:32:53.593Z,15.80
2019-02-05T08:35:22.570Z,13.80
2019-02-05T08:37:51.369Z,13.67
2019-02-05T08:40:22.243Z,14.70
2019-02-05T08:42:51.007Z,16.37
2019-02-05T08:45:21.728Z,14.57
2019-02-05T08:47:50.531Z,18.90
2019-02-05T08:50:21.895Z,18.00
2019-02-05T08:52:50.688Z,45.90
2019-02-05T08:55:20.851Z,15.70
2019-02-05T08:57:51.417Z,17.63
2019-02-05T09:00:28.874Z,21.10
2019-02-05T09:02:57.779Z,16.23
2019-02-05T09:05:26.673Z,15.90
2019-02-05T09:07:55.435Z,16.20
2019-02-05T09:10:26.844Z,15.77
2019-02-05T09:12:55.647Z,19.03
2019-02-05T09:15:29.520Z,14.70
2019-02-05T09:17:55.324Z,17.33
2019-02-05T09:20:24.414Z,23.07
2019-02-05T09:22:53.202Z,16.70
2019-02-05T09:25:21.953Z,20.00
2019-02-05T09:27:50.733Z,16.17
2019-02-05T09:30:22.098Z,17.67
2019-02-05T09:32:55.901Z,15.70
2019-02-05T09:35:24.647Z,18.70
2019-02-05T09:37:53.450Z,18.10
2019-02-05T09:40:30.371Z,15.07
2019-02-05T09:42:59.166Z,18.30
2019-02-05T09:45:29.811Z,20.70
2019-02-05T09:47:59.450Z,17.00
2019-02-05T09:50:30.803Z,17.70
2019-02-05T09:52:58.573Z,16.60
2019-02-05T09:55:27.347Z,24.50
2019-02-05T09:57:56.343Z,15.33
2019-02-05T10:00:33.314Z,18.20
2019-02-05T10:03:02.102Z,14.37
2019-02-05T10:05:34.979Z,22.90
2019-02-05T10:08:03.868Z,13.57
2019-02-05T10:10:32.540Z,14.70
2019-02-05T10:13:01.331Z,13.57
2019-02-05T10:15:38.452Z,13.30
2019-02-05T10:18:08.927Z,13.90
2019-02-05T10:20:37.717Z,15.70
2019-02-05T10:23:06.919Z,14.40
2019-02-05T10:25:36.412Z,12.87
2019-02-05T10:28:05.583Z,11.10
2019-02-05T10:30:42.469Z,16.50
2019-02-05T10:33:11.267Z,22.27
2019-02-05T10:35:40.171Z,11.50
2019-02-05T10:38:08.870Z,13.87
2019-02-05T10:40:37.869Z,12.63
2019-02-05T10:43:06.852Z,11.33
2019-02-05T10:45:36.361Z,10.73
2019-02-05T10:48:06.753Z,13.87
2019-02-05T10:50:36.019Z,12.00
2019-02-05T10:53:04.814Z,12.73
2019-02-05T10:55:33.591Z,14.03
2019-02-05T10:58:02.462Z,13.57
2019-02-05T11:00:32.627Z,16.73
2019-02-05T11:03:03.634Z,14.47
2019-02-05T11:05:32.596Z,12.13
2019-02-05T11:08:01.409Z,11.23
2019-02-05T11:10:30.174Z,15.00
2019-02-05T11:12:58.925Z,12.43
2019-02-05T11:15:34.382Z,11.70
2019-02-05T11:18:05.247Z,10.87
2019-02-05T11:20:33.977Z,14.43
2019-02-05T11:23:02.882Z,12.00
2019-02-05T11:25:33.347Z,11.73
2019-02-05T11:28:02.159Z,16.80
2019-02-05T11:30:33.944Z,17.13
2019-02-05T11:33:02.707Z,12.27
2019-02-05T11:35:31.804Z,11.67
2019-02-05T11:38:00.815Z,11.30
2019-02-05T11:40:32.360Z,14.50
2019-02-05T11:43:01.148Z,17.40
2019-02-05T11:45:30.216Z,10.27
2019-02-05T11:48:00.210Z,11.90
2019-02-05T11:50:29.283Z,12.43
2019-02-05T11:52:57.963Z,12.50
2019-02-05T11:55:34.188Z,12.53
2019-02-05T11:58:03.036Z,12.27
2019-02-05T12:00:39.236Z,10.83
2019-02-05T12:03:09.520Z,10.30
2019-02-05T12:05:38.525Z,9.87
2019-02-05T12:08:07.482Z,9.20
2019-02-05T12:10:36.276Z,10.90
2019-02-05T12:13:05.119Z,10.07
2019-02-05T12:15:33.880Z,9.07
2019-02-05T12:18:02.946Z,11.97
2019-02-05T12:20:31.758Z,11.43
2019-02-05T12:23:01.047Z,10.53
2019-02-05T12:25:31.291Z,11.27
2019-02-05T12:28:00.069Z,11.00
2019-02-05T12:30:44.967Z,12.17
2019-02-05T12:33:07.784Z,12.13
2019-02-05T12:35:36.681Z,12.97
2019-02-05T12:38:09.629Z,12.63
2019-02-05T12:40:38.297Z,12.33
2019-02-05T12:43:06.996Z,13.40
2019-02-05T12:45:37.479Z,14.77
2019-02-05T12:48:06.762Z,15.53
2019-02-05T12:50:38.287Z,16.27
2019-02-05T12:53:07.683Z,13.77
2019-02-05T12:55:36.554Z,15.53
2019-02-05T12:58:06.140Z,14.17
2019-02-05T13:00:39.688Z,15.83
2019-02-05T13:03:09.660Z,13.43
2019-02-05T13:05:38.920Z,14.07
2019-02-05T13:08:08.227Z,14.87
2019-02-05T13:10:42.359Z,14.77
2019-02-05T13:13:11.287Z,13.37
2019-02-05T13:15:39.968Z,16.60
2019-02-05T13:18:08.791Z,15.20
2019-02-05T13:20:38.241Z,14.30
2019-02-05T13:23:07.723Z,16.43
2019-02-05T13:25:36.814Z,17.57
2019-02-05T13:28:07.493Z,18.30
2019-02-05T13:30:37.177Z,17.67
2019-02-05T13:33:07.923Z,14.40
2019-02-05T13:35:38.216Z,18.50
2019-02-05T13:38:07.294Z,15.00
2019-02-05T13:40:35.999Z,17.17
2019-02-05T13:43:05.381Z,15.60
2019-02-05T13:45:37.449Z,13.70
2019-02-05T13:48:07.074Z,16.13
2019-02-05T13:50:35.846Z,17.27
2019-02-05T13:53:05.259Z,15.70
2019-02-05T13:55:36.781Z,15.37
2019-02-05T13:58:06.178Z,15.93
2019-02-05T14:00:40.750Z,18.00
2019-02-05T14:03:10.437Z,18.67
2019-02-05T14:05:39.533Z,18.57
2019-02-05T14:08:08.628Z,18.30
2019-02-05T14:10:39.846Z,15.83
2019-02-05T14:13:08.762Z,15.90
2019-02-05T14:15:39.843Z,15.00
2019-02-05T14:18:08.939Z,18.53
2019-02-05T14:20:37.705Z,15.37
2019-02-05T14:23:06.555Z,17.80
2019-02-05T14:25:35.278Z,17.70
2019-02-05T14:28:04.074Z,19.33
2019-02-05T14:30:38.401Z,17.47
2019-02-05T14:33:07.253Z,18.00
2019-02-05T14:35:35.968Z,18.20
2019-02-05T14:38:05.952Z,16.07
2019-02-05T14:40:34.650Z,18.00
2019-02-05T14:43:03.322Z,16.57
2019-02-05T14:45:32.024Z,17.93
2019-02-05T14:48:01.099Z,18.10
2019-02-05T14:50:35.078Z,18.10
2019-02-05T14:53:04.547Z,18.67
2019-02-05T14:55:33.241Z,18.53
2019-02-05T14:58:02.032Z,20.50
2019-02-05T15:00:32.540Z,20.37
2019-02-05T15:03:02.270Z,20.10
2019-02-05T15:05:31.126Z,21.20
2019-02-05T15:07:59.796Z,18.33
2019-02-05T15:10:28.518Z,17.67
2019-02-05T15:12:57.398Z,17.53
2019-02-05T15:15:28.009Z,18.37
2019-02-05T15:17:56.869Z,24.00
2019-02-05T15:20:27.875Z,22.03
2019-02-05T15:22:57.353Z,23.70
2019-02-05T15:25:26.122Z,20.40
2019-02-05T15:27:54.868Z,22.00
2019-02-05T15:30:31.875Z,19.57
2019-02-05T15:33:02.226Z,21.23
2019-02-05T15:35:31.033Z,22.13
2019-02-05T15:37:59.822Z,21.37
2019-02-05T15:40:28.619Z,20.77
2019-02-05T15:42:57.298Z,20.53
2019-02-05T15:45:26.275Z,25.50
2019-02-05T15:47:54.951Z,27.50
2019-02-05T15:50:23.658Z,22.57
2019-02-05T15:52:52.332Z,23.03
2019-02-05T15:55:21.243Z,22.73
2019-02-05T15:57:50.073Z,19.43
2019-02-05T16:00:20.907Z,20.40
2019-02-05T16:02:49.571Z,24.87
2019-02-05T16:05:18.485Z,21.67
2019-02-05T16:07:47.183Z,24.17
2019-02-05T16:10:26.263Z,19.17
2019-02-05T16:12:55.387Z,22.90
2019-02-05T16:15:24.089Z,21.57
2019-02-05T16:17:52.801Z,19.67
2019-02-05T16:20:24.608Z,26.83
2019-02-05T16:22:53.296Z,22.83
2019-02-05T16:25:22.011Z,19.73
2019-02-05T16:27:50.707Z,19.53
2019-02-05T16:30:32.544Z,21.07
2019-02-05T16:33:01.307Z,21.00
2019-02-05T16:35:30.025Z,21.50
2019-02-05T16:37:58.980Z,25.50
2019-02-05T16:40:39.019Z,21.00
2019-02-05T16:43:08.084Z,21.80
2019-02-05T16:45:36.808Z,23.30
2019-02-05T16:48:05.787Z,21.97
2019-02-05T16:50:48.627Z,23.67
2019-02-05T16:53:17.349Z,21.13
2019-02-05T16:55:46.066Z,21.40
2019-02-05T16:58:14.749Z,24.00
2019-02-05T17:00:43.523Z,23.00
2019-02-05T17:03:12.230Z,25.60
2019-02-05T17:05:42.586Z,21.17
2019-02-05T17:08:11.642Z,23.07
2019-02-05T17:10:40.445Z,23.70
2019-02-05T17:13:11.572Z,20.40
2019-02-05T17:15:39.740Z,21.10
2019-02-05T17:18:09.427Z,19.80
2019-02-05T17:20:38.325Z,22.13
2019-02-05T17:23:07.477Z,22.00
2019-02-05T17:25:36.409Z,17.80
2019-02-05T17:28:06.849Z,20.70
2019-02-05T17:30:40.772Z,18.00
2019-02-05T17:33:09.464Z,21.67
2019-02-05T17:35:38.401Z,22.37
2019-02-05T17:38:08.451Z,17.87
2019-02-05T17:40:37.396Z,20.17
2019-02-05T17:43:06.683Z,19.03
2019-02-05T17:45:37.870Z,14.63
2019-02-05T17:48:09.464Z,18.57
2019-02-05T17:50:38.192Z,18.13
2019-02-05T17:53:06.909Z,16.70
2019-02-05T17:55:35.627Z,22.97
2019-02-05T17:58:04.692Z,17.27
2019-02-05T18:00:44.676Z,15.93
2019-02-05T18:03:13.363Z,19.07
2019-02-05T18:05:42.246Z,20.77
2019-02-05T18:08:10.969Z,21.83
2019-02-05T18:10:41.941Z,16.50
2019-02-05T18:13:10.355Z,17.57
2019-02-05T18:15:41.037Z,17.13
2019-02-05T18:18:09.750Z,17.30
2019-02-05T18:20:38.515Z,16.30
2019-02-05T18:23:07.319Z,15.43
2019-02-05T18:25:36.198Z,19.80
2019-02-05T18:28:05.444Z,20.50
2019-02-05T18:30:35.795Z,17.33
2019-02-05T18:33:05.739Z,16.93
2019-02-05T18:35:34.962Z,15.10
2019-02-05T18:38:06.857Z,14.77
2019-02-05T18:40:36.378Z,14.10
2019-02-05T18:43:05.196Z,14.97
2019-02-05T18:45:33.936Z,17.40
2019-02-05T18:48:02.822Z,15.23
2019-02-05T18:50:31.617Z,13.97
2019-02-05T18:53:00.386Z,13.87
2019-02-05T18:55:34.635Z,14.43
2019-02-05T18:58:09.427Z,16.07
2019-02-05T19:00:38.651Z,23.43
2019-02-05T19:03:14.868Z,13.57
2019-02-05T19:05:37.390Z,13.13
2019-02-05T19:08:06.961Z,15.23
2019-02-05T19:10:35.746Z,13.63
2019-02-05T19:13:05.096Z,15.60
2019-02-05T19:15:38.607Z,13.50
2019-02-05T19:18:09.003Z,12.47
2019-02-05T19:20:37.872Z,11.87
2019-02-05T19:23:08.616Z,14.40
2019-02-05T19:25:53.995Z,13.43
2019-02-05T19:28:27.441Z,12.10
2019-02-05T19:30:57.797Z,13.50
2019-02-05T19:33:27.588Z,10.87
2019-02-05T19:35:56.480Z,10.70
2019-02-05T19:38:25.358Z,12.70
2019-02-05T19:40:57.701Z,11.73
2019-02-05T19:43:24.581Z,11.03
2019-02-05T19:46:07.244Z,13.43
2019-02-05T19:48:52.509Z,10.37
2019-02-05T19:51:21.253Z,10.87
2019-02-05T19:53:50.057Z,10.73
2019-02-05T19:56:18.860Z,10.77
2019-02-05T19:58:47.619Z,11.07
2019-02-05T20:01:18.556Z,12.67
2019-02-05T20:03:46.911Z,12.03
2019-02-05T20:06:15.677Z,10.87
2019-02-05T20:08:44.418Z,10.93
2019-02-05T20:11:13.199Z,11.00
2019-02-05T20:13:41.934Z,12.17
2019-02-05T20:16:10.699Z,9.43
2019-02-05T20:18:39.457Z,10.73
2019-02-05T20:21:08.130Z,12.80
2019-02-05T20:23:36.844Z,10.93
2019-02-05T20:26:05.624Z,10.63
2019-02-05T20:28:34.816Z,11.90
2019-02-05T20:31:04.811Z,9.60
2019-02-05T20:33:34.316Z,10.00
2019-02-05T20:36:02.986Z,14.30
2019-02-05T20:38:31.709Z,11.00
2019-02-05T20:41:00.471Z,10.90
2019-02-05T20:43:29.226Z,10.87
2019-02-05T20:45:58.291Z,9.27
2019-02-05T20:48:29.685Z,10.13
2019-02-05T20:50:57.456Z,13.10
2019-02-05T20:53:26.251Z,12.40
2019-02-05T20:55:55.035Z,10.80
2019-02-05T20:58:23.708Z,11.50
2019-02-05T21:00:53.682Z,11.03
2019-02-05T21:03:22.777Z,10.97
2019-02-05T21:05:51.507Z,11.40
2019-02-05T21:08:20.208Z,14.10
2019-02-05T21:10:48.899Z,12.93
2019-02-05T21:13:17.687Z,14.27
2019-02-05T21:15:46.402Z,12.67
2019-02-05T21:18:17.327Z,12.00
2019-02-05T21:20:45.539Z,11.93
2019-02-05T21:23:14.263Z,12.30
2019-02-05T21:25:42.962Z,14.00
2019-02-05T21:28:11.851Z,11.80
2019-02-05T21:30:40.602Z,13.90
2019-02-05T21:33:09.461Z,14.20
2019-02-05T21:35:38.652Z,12.70
2019-02-05T21:38:07.444Z,11.93
2019-02-05T21:40:36.163Z,12.33
2019-02-05T21:43:05.223Z,11.13
2019-02-05T21:45:34.046Z,11.67
2019-02-05T21:48:02.752Z,11.43
2019-02-05T21:50:31.487Z,11.60
2019-02-05T21:53:00.498Z,14.93
2019-02-05T21:55:29.644Z,15.10
2019-02-05T21:57:58.565Z,13.43
2019-02-05T22:00:28.934Z,14.83
2019-02-05T22:02:58.280Z,12.50
2019-02-05T22:05:28.229Z,16.20
2019-02-05T22:07:57.044Z,14.43
2019-02-05T22:10:25.879Z,18.30
2019-02-05T22:12:54.739Z,27.43
2019-02-05T22:15:23.818Z,27.33
2019-02-05T22:17:52.743Z,30.43
2019-02-05T22:20:26.688Z,92.13
2019-02-05T22:22:57.111Z,48.07
2019-02-05T22:25:30.753Z,52.03
2019-02-05T22:27:59.515Z,34.07
2019-02-05T22:30:30.873Z,25.90
2019-02-05T22:32:59.651Z,19.50
2019-02-05T22:35:28.407Z,13.50
2019-02-05T22:37:57.191Z,13.97
2019-02-05T22:40:27.385Z,13.60
2019-02-05T22:42:56.548Z,16.93
2019-02-05T22:45:30.476Z,22.43
2019-02-05T22:47:59.215Z,30.13
2019-02-05T22:50:30.050Z,32.23
2019-02-05T22:52:58.957Z,23.20
2019-02-05T22:55:28.000Z,15.47
2019-02-05T22:57:56.793Z,13.10
2019-02-05T23:00:54.312Z,12.43
2019-02-05T23:03:28.844Z,13.27
2019-02-05T23:06:23.784Z,12.43
2019-02-05T23:08:53.455Z,10.30
2019-02-05T23:11:37.123Z,9.67
2019-02-05T23:14:06.150Z,12.57
2019-02-05T23:16:34.916Z,11.37
2019-02-05T23:19:04.057Z,12.73
2019-02-05T23:21:32.791Z,10.50
2019-02-05T23:24:01.809Z,10.00
2019-02-05T23:26:30.591Z,8.87
2019-02-05T23:28:59.271Z,9.70
2019-02-05T23:31:28.036Z,7.93
2019-02-05T23:33:56.667Z,9.83
2019-02-05T23:36:25.374Z,8.57
2019-02-05T23:38:56.004Z,8.93
2019-02-05T23:41:24.699Z,8.63
2019-02-05T23:43:53.377Z,7.50
2019-02-05T23:46:22.116Z,9.07
2019-02-05T23:48:50.830Z,8.50
2019-02-05T23:51:19.605Z,8.20
2019-02-05T23:53:48.389Z,7.10
2019-02-05T23:56:25.427Z,8.67
2019-02-05T23:58:47.580Z,7.90
